sensor_id;sensor_type;location;lat;lon;timestamp;pressure;altitude;pressure_sealevel;temperature;humidity
38253;BME280;24785;52.372;20.672;2023-03-19T00:03:21;100859.50;;;3.94;67.34
38253;BME280;24785;52.372;20.672;2023-03-19T00:13:22;100862.38;;;3.92;67.92
38253;BME280;24785;52.372;20.672;2023-03-19T00:23:22;100845.81;;;3.78;68.63
38253;BME280;24785;52.372;20.672;2023-03-19T00:33:23;100850.09;;;3.73;68.70
38253;BME280;24785;52.372;20.672;2023-03-19T00:43:25;100845.53;;;3.62;69.30
38253;BME280;24785;52.372;20.672;2023-03-19T00:53:26;100847.41;;;3.55;69.20
38253;BME280;24785;52.372;20.672;2023-03-19T01:03:27;100844.13;;;3.34;70.15
38253;BME280;24785;52.372;20.672;2023-03-19T01:13:28;100855.16;;;3.31;69.85
38253;BME280;24785;52.372;20.672;2023-03-19T01:23:29;100861.13;;;3.20;70.16
38253;BME280;24785;52.372;20.672;2023-03-19T01:33:30;100862.56;;;3.16;70.54
38253;BME280;24785;52.372;20.672;2023-03-19T01:43:31;100859.28;;;3.21;70.73
38253;BME280;24785;52.372;20.672;2023-03-19T01:53:33;100861.13;;;3.20;71.06
38253;BME280;24785;52.372;20.672;2023-03-19T02:03:37;100858.94;;;3.10;71.31
38253;BME280;24785;52.372;20.672;2023-03-19T02:13:38;100845.91;;;3.09;71.37
38253;BME280;24785;52.372;20.672;2023-03-19T02:24:02;100848.63;;;3.02;72.11
38253;BME280;24785;52.372;20.672;2023-03-19T02:44:20;100873.34;;;2.38;75.98
38253;BME280;24785;52.372;20.672;2023-03-19T02:54:21;100876.66;;;1.87;77.48
38253;BME280;24785;52.372;20.672;2023-03-19T03:04:22;100870.41;;;1.42;78.99
38253;BME280;24785;52.372;20.672;2023-03-19T03:14:23;100883.38;;;1.24;80.41
38253;BME280;24785;52.372;20.672;2023-03-19T03:24:24;100864.66;;;1.06;80.93
38253;BME280;24785;52.372;20.672;2023-03-19T03:34:25;100863.78;;;0.85;82.91
38253;BME280;24785;52.372;20.672;2023-03-19T03:44:25;100873.09;;;0.75;83.50
38253;BME280;24785;52.372;20.672;2023-03-19T03:54:27;100864.03;;;0.43;85.74
38253;BME280;24785;52.372;20.672;2023-03-19T04:04:27;100862.28;;;0.15;88.01
38253;BME280;24785;52.372;20.672;2023-03-19T04:14:29;100855.53;;;0.06;90.14
38253;BME280;24785;52.372;20.672;2023-03-19T04:24:29;100847.84;;;-0.23;92.96
38253;BME280;24785;52.372;20.672;2023-03-19T04:34:30;100839.94;;;-0.51;96.17
38253;BME280;24785;52.372;20.672;2023-03-19T04:44:31;100840.28;;;-0.33;99.25
38253;BME280;24785;52.372;20.672;2023-03-19T04:54:32;100858.75;;;-0.26;97.44
38253;BME280;24785;52.372;20.672;2023-03-19T05:04:33;100860.63;;;-0.20;97.94
38253;BME280;24785;52.372;20.672;2023-03-19T05:14:34;100867.91;;;-0.22;98.61
38253;BME280;24785;52.372;20.672;2023-03-19T05:24:35;100877.53;;;-0.08;100.00
38253;BME280;24785;52.372;20.672;2023-03-19T05:34:36;100882.88;;;0.40;100.00
38253;BME280;24785;52.372;20.672;2023-03-19T05:44:37;100863.03;;;0.98;100.00
38253;BME280;24785;52.372;20.672;2023-03-19T05:54:37;100869.16;;;1.78;97.83
38253;BME280;24785;52.372;20.672;2023-03-19T06:04:38;100880.66;;;2.43;92.45
38253;BME280;24785;52.372;20.672;2023-03-19T06:14:39;100870.81;;;3.01;85.97
38253;BME280;24785;52.372;20.672;2023-03-19T06:24:40;100885.59;;;3.47;82.14
38253;BME280;24785;52.372;20.672;2023-03-19T06:34:41;100867.94;;;4.09;80.25
38253;BME280;24785;52.372;20.672;2023-03-19T06:44:42;100876.81;;;4.88;76.26
38253;BME280;24785;52.372;20.672;2023-03-19T06:54:42;100871.69;;;5.58;71.81
38253;BME280;24785;52.372;20.672;2023-03-19T07:04:43;100885.06;;;6.05;66.72
38253;BME280;24785;52.372;20.672;2023-03-19T07:14:44;100890.00;;;6.36;65.11
38253;BME280;24785;52.372;20.672;2023-03-19T07:24:45;100884.28;;;6.68;63.95
38253;BME280;24785;52.372;20.672;2023-03-19T07:34:46;100892.94;;;7.03;62.45
38253;BME280;24785;52.372;20.672;2023-03-19T07:44:47;100877.19;;;7.30;61.41
38253;BME280;24785;52.372;20.672;2023-03-19T07:54:48;100900.41;;;7.80;60.08
38253;BME280;24785;52.372;20.672;2023-03-19T08:04:50;100891.88;;;8.00;59.21
38253;BME280;24785;52.372;20.672;2023-03-19T08:14:51;100884.78;;;8.44;58.42
38253;BME280;24785;52.372;20.672;2023-03-19T08:24:52;100892.19;;;9.02;56.44
38253;BME280;24785;52.372;20.672;2023-03-19T08:34:53;100880.66;;;9.29;56.87
38253;BME280;24785;52.372;20.672;2023-03-19T08:44:54;100872.94;;;9.64;55.52
38253;BME280;24785;52.372;20.672;2023-03-19T08:54:54;100877.72;;;9.94;53.99
38253;BME280;24785;52.372;20.672;2023-03-19T09:04:55;100871.59;;;10.41;54.00
38253;BME280;24785;52.372;20.672;2023-03-19T09:14:56;100869.63;;;10.89;52.24
38253;BME280;24785;52.372;20.672;2023-03-19T09:24:57;100871.53;;;11.14;51.48
38253;BME280;24785;52.372;20.672;2023-03-19T09:34:58;100853.31;;;11.21;50.78
38253;BME280;24785;52.372;20.672;2023-03-19T09:44:59;100849.56;;;11.27;52.45
38253;BME280;24785;52.372;20.672;2023-03-19T09:55:06;100850.88;;;11.34;53.38
38253;BME280;24785;52.372;20.672;2023-03-19T10:05:29;100849.56;;;11.27;51.29
38253;BME280;24785;52.372;20.672;2023-03-19T10:15:32;100853.88;;;11.38;52.66
38253;BME280;24785;52.372;20.672;2023-03-19T10:25:38;100849.84;;;11.56;51.38
38253;BME280;24785;52.372;20.672;2023-03-19T10:35:43;100852.78;;;11.70;51.91
38253;BME280;24785;52.372;20.672;2023-03-19T10:45:44;100855.72;;;11.98;51.21
38253;BME280;24785;52.372;20.672;2023-03-19T10:55:59;100840.31;;;12.35;50.47
38253;BME280;24785;52.372;20.672;2023-03-19T11:16:13;100825.06;;;13.18;49.42
38253;BME280;24785;52.372;20.672;2023-03-19T11:26:18;100812.88;;;13.60;46.95
38253;BME280;24785;52.372;20.672;2023-03-19T11:36:30;100802.28;;;13.69;46.60
38253;BME280;24785;52.372;20.672;2023-03-19T11:46:36;100789.53;;;13.79;44.89
38253;BME280;24785;52.372;20.672;2023-03-19T11:56:55;100779.72;;;13.36;45.14
38253;BME280;24785;52.372;20.672;2023-03-19T12:07:27;100774.00;;;13.08;43.67
38253;BME280;24785;52.372;20.672;2023-03-19T12:38:38;100754.41;;;13.90;42.97
38253;BME280;24785;52.372;20.672;2023-03-19T12:48:49;100733.88;;;13.70;42.65
38253;BME280;24785;52.372;20.672;2023-03-19T12:58:56;100726.22;;;14.25;42.03
38253;BME280;24785;52.372;20.672;2023-03-19T13:09:07;100721.00;;;14.71;40.14
38253;BME280;24785;52.372;20.672;2023-03-19T13:19:20;100705.50;;;14.95;40.75
38253;BME280;24785;52.372;20.672;2023-03-19T13:29:30;100707.47;;;14.90;40.31
38253;BME280;24785;52.372;20.672;2023-03-19T13:39:32;100703.50;;;14.68;40.77
38253;BME280;24785;52.372;20.672;2023-03-19T13:49:33;100691.22;;;15.08;40.58
38253;BME280;24785;52.372;20.672;2023-03-19T13:59:36;100691.78;;;14.92;41.67
38253;BME280;24785;52.372;20.672;2023-03-19T14:09:41;100683.47;;;15.34;40.93
38253;BME280;24785;52.372;20.672;2023-03-19T14:19:43;100690.88;;;15.15;42.06
38253;BME280;24785;52.372;20.672;2023-03-19T14:29:44;100679.19;;;14.87;42.87
38253;BME280;24785;52.372;20.672;2023-03-19T14:40:29;100693.59;;;14.45;43.57
38253;BME280;24785;52.372;20.672;2023-03-19T15:00:44;100684.50;;;13.98;44.81
38253;BME280;24785;52.372;20.672;2023-03-19T15:10:54;100682.75;;;13.65;46.30
38253;BME280;24785;52.372;20.672;2023-03-19T15:20:58;100690.97;;;13.31;48.46
38253;BME280;24785;52.372;20.672;2023-03-19T15:31:01;100675.13;;;12.95;49.55
38253;BME280;24785;52.372;20.672;2023-03-19T15:41:06;100686.78;;;12.46;50.86
38253;BME280;24785;52.372;20.672;2023-03-19T15:51:09;100686.28;;;11.95;52.01
38253;BME280;24785;52.372;20.672;2023-03-19T16:01:11;100690.41;;;11.57;51.94
38253;BME280;24785;52.372;20.672;2023-03-19T16:11:15;100702.84;;;11.07;54.31
38253;BME280;24785;52.372;20.672;2023-03-19T16:21:27;100712.75;;;10.66;54.45
38253;BME280;24785;52.372;20.672;2023-03-19T16:31:29;100728.41;;;10.17;56.36
38253;BME280;24785;52.372;20.672;2023-03-19T16:41:34;100732.47;;;9.67;58.16
38253;BME280;24785;52.372;20.672;2023-03-19T16:51:36;100751.66;;;9.17;60.98
38253;BME280;24785;52.372;20.672;2023-03-19T17:01:37;100753.03;;;8.60;64.20
38253;BME280;24785;52.372;20.672;2023-03-19T17:11:39;100744.41;;;8.31;65.15
38253;BME280;24785;52.372;20.672;2023-03-19T17:21:43;100759.69;;;7.92;66.44
38253;BME280;24785;52.372;20.672;2023-03-19T17:31:44;100761.16;;;7.44;70.29
38253;BME280;24785;52.372;20.672;2023-03-19T17:41:45;100765.84;;;7.04;72.28
38253;BME280;24785;52.372;20.672;2023-03-19T17:51:46;100761.63;;;6.91;75.53
38253;BME280;24785;52.372;20.672;2023-03-19T18:01:47;100752.81;;;6.74;77.42
38253;BME280;24785;52.372;20.672;2023-03-19T18:11:49;100751.28;;;6.78;76.92
38253;BME280;24785;52.372;20.672;2023-03-19T18:21:50;100744.03;;;6.16;78.93
38253;BME280;24785;52.372;20.672;2023-03-19T18:31:50;100751.69;;;5.66;82.21
38253;BME280;24785;52.372;20.672;2023-03-19T18:41:52;100757.16;;;5.59;82.77
38253;BME280;24785;52.372;20.672;2023-03-19T18:51:53;100749.41;;;5.58;80.86
38253;BME280;24785;52.372;20.672;2023-03-19T19:01:59;100752.28;;;5.56;86.69
38253;BME280;24785;52.372;20.672;2023-03-19T19:12:01;100758.19;;;5.47;92.86
38253;BME280;24785;52.372;20.672;2023-03-19T19:22:02;100756.13;;;5.25;97.50
38253;BME280;24785;52.372;20.672;2023-03-19T19:32:04;100752.25;;;4.98;98.50
38253;BME280;24785;52.372;20.672;2023-03-19T19:42:11;100753.69;;;4.70;99.17
38253;BME280;24785;52.372;20.672;2023-03-19T19:52:14;100760.31;;;4.50;99.17
38253;BME280;24785;52.372;20.672;2023-03-19T20:02:26;100756.91;;;4.31;100.00
38253;BME280;24785;52.372;20.672;2023-03-19T20:12:31;100763.50;;;4.22;100.00
38253;BME280;24785;52.372;20.672;2023-03-19T20:22:32;100745.56;;;4.05;100.00
38253;BME280;24785;52.372;20.672;2023-03-19T20:32:37;100750.06;;;3.87;100.00
38253;BME280;24785;52.372;20.672;2023-03-19T20:42:39;100754.53;;;3.68;100.00
38253;BME280;24785;52.372;20.672;2023-03-19T20:52:40;100755.47;;;3.37;100.00
38253;BME280;24785;52.372;20.672;2023-03-19T21:02:41;100749.72;;;3.15;100.00
38253;BME280;24785;52.372;20.672;2023-03-19T21:12:42;100744.66;;;2.89;100.00
38253;BME280;24785;52.372;20.672;2023-03-19T21:22:44;100755.31;;;2.75;100.00
38253;BME280;24785;52.372;20.672;2023-03-19T21:32:47;100741.09;;;2.38;100.00
38253;BME280;24785;52.372;20.672;2023-03-19T21:42:52;100738.31;;;2.20;100.00
38253;BME280;24785;52.372;20.672;2023-03-19T21:52:55;100734.22;;;2.24;100.00
38253;BME280;24785;52.372;20.672;2023-03-19T22:02:56;100729.50;;;2.33;100.00
38253;BME280;24785;52.372;20.672;2023-03-19T22:12:57;100728.09;;;2.37;100.00
38253;BME280;24785;52.372;20.672;2023-03-19T22:22:59;100720.16;;;2.37;100.00
38253;BME280;24785;52.372;20.672;2023-03-19T22:33:02;100723.06;;;2.22;100.00
38253;BME280;24785;52.372;20.672;2023-03-19T22:43:34;100719.03;;;2.13;100.00
38253;BME280;24785;52.372;20.672;2023-03-19T22:53:36;100727.28;;;1.92;100.00
38253;BME280;24785;52.372;20.672;2023-03-19T23:03:37;100727.38;;;1.52;100.00
38253;BME280;24785;52.372;20.672;2023-03-19T23:13:37;100723.53;;;1.35;100.00
38253;BME280;24785;52.372;20.672;2023-03-19T23:23:38;100726.81;;;1.17;100.00
38253;BME280;24785;52.372;20.672;2023-03-19T23:33:39;100709.38;;;1.03;100.00
38253;BME280;24785;52.372;20.672;2023-03-19T23:43:40;100707.91;;;0.74;100.00
38253;BME280;24785;52.372;20.672;2023-03-19T23:53:43;100709.34;;;0.70;100.00
